sensor_id;sensor_type;location;lat;lon;timestamp;temperature;humidity
40249;DHT22;25969;49.970;11.062;2023-01-20T05:02:06;-1.10;99.90
40249;DHT22;25969;49.970;11.062;2023-01-20T05:12:07;-1.40;99.90
40249;DHT22;25969;49.970;11.062;2023-01-20T05:22:08;-1.70;99.90
40249;DHT22;25969;49.970;11.062;2023-01-20T05:32:09;-1.90;99.90
40249;DHT22;25969;49.970;11.062;2023-01-20T05:42:10;-2.00;99.90
40249;DHT22;25969;49.970;11.062;2023-01-20T05:52:10;-2.10;99.90
40249;DHT22;25969;49.970;11.062;2023-01-20T06:02:11;-1.90;99.90
40249;DHT22;25969;49.970;11.062;2023-01-20T06:12:12;-1.70;99.90
40249;DHT22;25969;49.970;11.062;2023-01-20T06:22:13;-1.70;99.90
40249;DHT22;25969;49.970;11.062;2023-01-20T06:32:15;-1.90;99.90
40249;DHT22;25969;49.970;11.062;2023-01-20T06:42:15;-2.00;99.90
40249;DHT22;25969;49.970;11.062;2023-01-20T06:52:16;-1.70;99.90
40249;DHT22;25969;49.970;11.062;2023-01-20T07:02:16;-1.90;99.90
40249;DHT22;25969;49.970;11.062;2023-01-20T07:12:17;-1.90;99.90
40249;DHT22;25969;49.970;11.062;2023-01-20T07:22:18;-1.80;99.90
40249;DHT22;25969;49.970;11.062;2023-01-20T07:32:18;-1.70;99.90
40249;DHT22;25969;49.970;11.062;2023-01-20T07:42:19;-1.70;99.90
40249;DHT22;25969;49.970;11.062;2023-01-20T07:52:21;-1.60;99.90
40249;DHT22;25969;49.970;11.062;2023-01-20T08:02:22;-0.90;99.90
40249;DHT22;25969;49.970;11.062;2023-01-20T08:12:22;-1.10;99.90
40249;DHT22;25969;49.970;11.062;2023-01-20T08:22:23;-0.80;99.90
40249;DHT22;25969;49.970;11.062;2023-01-20T08:32:24;-0.30;99.90
40249;DHT22;25969;49.970;11.062;2023-01-20T08:42:25;0.10;99.90
40249;DHT22;25969;49.970;11.062;2023-01-20T08:52:26;0.30;99.90
40249;DHT22;25969;49.970;11.062;2023-01-20T09:02:28;0.10;99.90
40249;DHT22;25969;49.970;11.062;2023-01-20T09:12:28;0.10;99.90
40249;DHT22;25969;49.970;11.062;2023-01-20T09:22:29;0.10;99.90
40249;DHT22;25969;49.970;11.062;2023-01-20T09:32:30;0.30;99.90
40249;DHT22;25969;49.970;11.062;2023-01-20T09:43:10;0.60;99.90
40249;DHT22;25969;49.970;11.062;2023-01-20T09:53:56;0.70;99.90
40249;DHT22;25969;49.970;11.062;2023-01-20T10:04:38;1.20;99.90
40249;DHT22;25969;49.970;11.062;2023-01-20T10:14:44;1.20;99.90
40249;DHT22;25969;49.970;11.062;2023-01-20T10:24:59;1.20;99.90
40249;DHT22;25969;49.970;11.062;2023-01-20T10:35:26;1.20;99.90
40249;DHT22;25969;49.970;11.062;2023-01-20T11:05:50;2.00;99.90
40249;DHT22;25969;49.970;11.062;2023-01-20T11:16:01;2.40;99.90
40249;DHT22;25969;49.970;11.062;2023-01-20T11:26:07;2.80;99.90
40249;DHT22;25969;49.970;11.062;2023-01-20T11:36:17;3.20;99.90
40249;DHT22;25969;49.970;11.062;2023-01-20T11:56:23;2.70;99.90
40249;DHT22;25969;49.970;11.062;2023-01-20T12:07:04;2.80;99.90
40249;DHT22;25969;49.970;11.062;2023-01-20T12:27:19;2.70;99.90
40249;DHT22;25969;49.970;11.062;2023-01-20T12:38:12;2.40;99.90
40249;DHT22;25969;49.970;11.062;2023-01-20T12:48:16;2.50;99.90
40249;DHT22;25969;49.970;11.062;2023-01-20T13:19:23;4.30;99.90
40249;DHT22;25969;49.970;11.062;2023-01-20T13:39:40;2.50;99.90
40249;DHT22;25969;49.970;11.062;2023-01-20T13:49:52;2.30;99.90
40249;DHT22;25969;49.970;11.062;2023-01-20T13:59:53;1.80;99.90
40249;DHT22;25969;49.970;11.062;2023-01-20T14:09:56;1.70;99.90
40249;DHT22;25969;49.970;11.062;2023-01-20T14:19:57;1.90;99.90
40249;DHT22;25969;49.970;11.062;2023-01-20T14:30:25;2.10;99.90
40249;DHT22;25969;49.970;11.062;2023-01-20T14:40:29;3.60;99.90
40249;DHT22;25969;49.970;11.062;2023-01-20T14:50:30;4.90;99.90
40249;DHT22;25969;49.970;11.062;2023-01-20T15:00:32;3.90;99.90
40249;DHT22;25969;49.970;11.062;2023-01-20T15:10:33;2.70;99.90
40249;DHT22;25969;49.970;11.062;2023-01-20T15:20:39;2.00;99.90
40249;DHT22;25969;49.970;11.062;2023-01-20T15:30:40;1.40;99.90
40249;DHT22;25969;49.970;11.062;2023-01-20T15:40:41;0.70;99.90
40249;DHT22;25969;49.970;11.062;2023-01-20T15:50:42;0.20;99.90
40249;DHT22;25969;49.970;11.062;2023-01-20T16:00:43;0.10;99.90
40249;DHT22;25969;49.970;11.062;2023-01-20T16:10:43;0.30;99.90
40249;DHT22;25969;49.970;11.062;2023-01-20T16:20:46;0.10;99.90
40249;DHT22;25969;49.970;11.062;2023-01-20T16:30:47;0.00;99.90
40249;DHT22;25969;49.970;11.062;2023-01-20T16:40:54;-0.20;99.90
40249;DHT22;25969;49.970;11.062;2023-01-20T16:50:58;-0.50;99.90
40249;DHT22;25969;49.970;11.062;2023-01-20T17:01:04;-1.50;99.90
40249;DHT22;25969;49.970;11.062;2023-01-20T17:11:26;-1.80;99.90
40249;DHT22;25969;49.970;11.062;2023-01-20T17:21:29;-2.20;99.90
40249;DHT22;25969;49.970;11.062;2023-01-20T17:31:31;-2.90;99.90
40249;DHT22;25969;49.970;11.062;2023-01-20T17:41:34;-2.40;99.90
40249;DHT22;25969;49.970;11.062;2023-01-20T17:51:35;-3.00;99.90
40249;DHT22;25969;49.970;11.062;2023-01-20T18:01:36;-2.60;99.90
40249;DHT22;25969;49.970;11.062;2023-01-20T18:11:36;-3.00;99.90
40249;DHT22;25969;49.970;11.062;2023-01-20T18:21:37;-2.90;99.90
40249;DHT22;25969;49.970;11.062;2023-01-20T18:31:38;-2.70;99.90
40249;DHT22;25969;49.970;11.062;2023-01-20T18:41:39;-3.10;99.90
40249;DHT22;25969;49.970;11.062;2023-01-20T18:51:41;-3.50;99.90
40249;DHT22;25969;49.970;11.062;2023-01-20T19:01:42;-3.30;99.90
40249;DHT22;25969;49.970;11.062;2023-01-20T19:11:43;-3.60;99.90
40249;DHT22;25969;49.970;11.062;2023-01-20T19:21:44;-4.20;99.90
40249;DHT22;25969;49.970;11.062;2023-01-20T19:31:45;-3.00;99.90
40249;DHT22;25969;49.970;11.062;2023-01-20T19:41:45;-3.20;99.90
40249;DHT22;25969;49.970;11.062;2023-01-20T19:51:46;-2.70;99.90
40249;DHT22;25969;49.970;11.062;2023-01-20T20:01:47;-2.60;99.90
40249;DHT22;25969;49.970;11.062;2023-01-20T20:11:48;-2.50;99.90
40249;DHT22;25969;49.970;11.062;2023-01-20T20:21:49;-2.20;99.90
40249;DHT22;25969;49.970;11.062;2023-01-20T20:31:49;-2.40;99.90
40249;DHT22;25969;49.970;11.062;2023-01-20T20:41:50;-2.80;99.90
40249;DHT22;25969;49.970;11.062;2023-01-20T20:51:51;-3.10;99.90
40249;DHT22;25969;49.970;11.062;2023-01-20T21:01:52;-3.00;99.90
40249;DHT22;25969;49.970;11.062;2023-01-20T21:11:53;-2.70;99.90
40249;DHT22;25969;49.970;11.062;2023-01-20T21:21:54;-2.50;99.90
40249;DHT22;25969;49.970;11.062;2023-01-20T21:31:55;-2.50;99.90
40249;DHT22;25969;49.970;11.062;2023-01-20T21:41:56;-2.50;99.90
40249;DHT22;25969;49.970;11.062;2023-01-20T21:51:57;-2.40;99.90
40249;DHT22;25969;49.970;11.062;2023-01-20T22:02:17;-2.30;99.90
40249;DHT22;25969;49.970;11.062;2023-01-20T22:12:18;-2.30;99.90
40249;DHT22;25969;49.970;11.062;2023-01-20T22:22:18;-2.20;99.90
40249;DHT22;25969;49.970;11.062;2023-01-20T22:32:19;-2.30;99.90
40249;DHT22;25969;49.970;11.062;2023-01-20T22:42:20;-2.80;99.90
40249;DHT22;25969;49.970;11.062;2023-01-20T22:52:21;-3.50;99.90
